Time;durP1;ratioP1;P1;durP2;ratioP2;P2;SDS_P1;SDS_P2;PMS_P1;PMS_P2;Temp;Humidity;BMP_temperature;BMP_pressure;BME280_temperature;BME280_humidity;BME280_pressure;Samples;Min_cycle;Max_cycle;Signal;HPM_P1;HPM_P2
2022/08/08 00:00:20;;;;;;;2.00;1.77;;;17.00;91.70;;;;;;5050128;28;20453;-73
2022/08/08 00:03:15;;;;;;;1.57;1.47;;;16.90;92.00;;;;;;5050008;28;20527;-73
2022/08/08 00:05:59;;;;;;;6.23;2.43;;;16.90;92.20;;;;;;5049607;28;20437;-73
2022/08/08 00:08:48;;;;;;;2.30;1.43;;;16.90;92.40;;;;;;5054253;28;20482;-73
2022/08/08 00:11:26;;;;;;;2.17;1.97;;;16.80;92.60;;;;;;5070164;28;20402;-73
2022/08/08 00:14:02;;;;;;;2.43;2.10;;;16.80;92.70;;;;;;5070068;28;20782;-73
2022/08/08 00:16:52;;;;;;;2.70;1.80;;;16.70;92.80;;;;;;5056226;28;21076;-73
2022/08/08 00:19:41;;;;;;;4.97;2.30;;;16.70;92.80;;;;;;5053450;28;20508;-72
2022/08/08 00:22:15;;;;;;;4.90;1.73;;;16.70;93.00;;;;;;5054439;28;20437;-73
2022/08/08 00:24:49;;;;;;;2.20;2.00;;;16.60;93.00;;;;;;5055370;28;20403;-74
2022/08/08 00:27:18;;;;;;;2.50;2.20;;;16.60;93.20;;;;;;5053426;28;20400;-73
2022/08/08 00:29:55;;;;;;;2.30;2.10;;;16.60;93.40;;;;;;5053439;28;20409;-73
2022/08/08 00:32:45;;;;;;;5.70;2.63;;;16.60;93.40;;;;;;5053107;28;20515;-73
2022/08/08 00:35:24;;;;;;;3.20;2.13;;;16.60;93.60;;;;;;5052542;28;20416;-73
2022/08/08 00:38:21;;;;;;;2.20;1.80;;;16.60;93.70;;;;;;5052789;28;20459;-73
2022/08/08 00:41:14;;;;;;;4.80;2.40;;;16.60;94.20;;;;;;4981599;28;20972;-73
2022/08/08 00:44:21;;;;;;;2.23;2.03;;;16.50;93.90;;;;;;5053043;28;20434;-73
2022/08/08 00:47:12;;;;;;;2.60;2.30;;;16.40;94.30;;;;;;5052546;28;20411;-72
2022/08/08 00:49:57;;;;;;;2.60;2.00;;;16.40;94.40;;;;;;5052668;28;20474;-73
2022/08/08 00:53:14;;;;;;;2.43;2.23;;;16.30;94.70;;;;;;5052858;28;20419;-73
2022/08/08 00:56:03;;;;;;;2.63;2.43;;;16.30;94.80;;;;;;4990876;28;20504;-73
2022/08/08 00:59:05;;;;;;;14.90;2.73;;;16.30;95.20;;;;;;4991016;28;20471;-73
2022/08/08 01:02:07;;;;;;;1.80;1.70;;;16.40;95.30;;;;;;5049812;28;20403;-74
2022/08/08 01:05:00;;;;;;;2.27;2.07;;;16.30;95.30;;;;;;5052582;28;20432;-74
2022/08/08 01:07:48;;;;;;;2.80;2.40;;;16.20;95.20;;;;;;5052756;28;20431;-73
2022/08/08 01:10:36;;;;;;;2.93;2.00;;;16.10;95.40;;;;;;5053159;28;20405;-73
2022/08/08 01:13:10;;;;;;;3.17;2.00;;;16.10;95.70;;;;;;5052493;28;20951;-73
2022/08/08 01:15:57;;;;;;;2.87;2.67;;;16.10;95.80;;;;;;5052016;28;20874;-74
2022/08/08 01:18:22;;;;;;;3.23;2.60;;;16.20;96.10;;;;;;5052450;28;20399;-73
2022/08/08 01:21:21;;;;;;;3.37;2.70;;;16.20;96.30;;;;;;5052144;28;20543;-73
2022/08/08 01:24:24;;;;;;;4.47;2.73;;;16.10;96.10;;;;;;5052366;28;20178;-73
2022/08/08 01:27:08;;;;;;;3.43;2.30;;;16.10;96.40;;;;;;5051091;28;20434;-74
2022/08/08 01:30:11;;;;;;;6.20;2.63;;;16.00;96.60;;;;;;5052538;28;20930;-74
2022/08/08 01:32:56;;;;;;;3.17;2.20;;;16.00;96.70;;;;;;5049700;28;20423;-72
2022/08/08 01:35:43;;;;;;;4.13;3.73;;;16.00;96.90;;;;;;5050195;28;20419;-72
2022/08/08 01:38:25;;;;;;;3.77;2.60;;;16.00;97.00;;;;;;5052537;28;20507;-72
2022/08/08 01:41:06;;;;;;;2.77;2.10;;;16.00;97.40;;;;;;5052242;28;20860;-74
2022/08/08 01:43:57;;;;;;;2.23;2.00;;;16.00;97.40;;;;;;5052140;28;20418;-73
2022/08/08 01:46:42;;;;;;;2.47;2.27;;;16.00;97.30;;;;;;5052054;28;20402;-72
2022/08/08 01:49:43;;;;;;;3.17;2.30;;;15.90;97.50;;;;;;5051828;28;20454;-72
2022/08/08 01:52:41;;;;;;;3.20;2.13;;;15.80;97.60;;;;;;4991104;28;20472;-72
2022/08/08 01:55:28;;;;;;;5.03;2.17;;;15.80;97.90;;;;;;5052251;28;20435;-72
2022/08/08 01:58:12;;;;;;;4.87;2.40;;;15.80;98.10;;;;;;5052446;28;20430;-73
2022/08/08 02:00:52;;;;;;;2.83;2.27;;;15.70;98.20;;;;;;5052274;28;20409;-72
2022/08/08 02:03:45;;;;;;;2.50;2.30;;;15.70;98.30;;;;;;5033762;28;20463;-74
2022/08/08 02:06:42;;;;;;;2.37;2.10;;;15.60;98.50;;;;;;5051739;28;20398;-73
2022/08/08 02:09:23;;;;;;;3.27;2.30;;;15.80;98.90;;;;;;5052028;28;20492;-73
2022/08/08 02:11:49;;;;;;;2.13;2.00;;;15.80;98.80;;;;;;5051938;28;20842;-74
2022/08/08 02:14:45;;;;;;;3.10;2.60;;;15.80;98.70;;;;;;5033912;28;20936;-73
2022/08/08 02:17:19;;;;;;;3.97;2.80;;;15.80;98.80;;;;;;5052347;28;20405;-73
2022/08/08 02:19:48;;;;;;;3.43;2.30;;;15.70;98.80;;;;;;5052363;28;20422;-75
2022/08/08 02:22:50;;;;;;;3.30;1.80;;;15.80;98.90;;;;;;5052300;28;20448;-73
2022/08/08 02:25:38;;;;;;;3.50;2.90;;;15.80;98.90;;;;;;5007024;28;20415;-74
2022/08/08 02:28:33;;;;;;;5.20;2.27;;;15.90;98.90;;;;;;5051400;28;20450;-73
2022/08/08 02:31:17;;;;;;;8.20;5.67;;;15.70;99.10;;;;;;5051451;28;20405;-73
2022/08/08 02:34:00;;;;;;;8.60;5.83;;;15.80;99.30;;;;;;5033075;28;20429;-73
2022/08/08 02:36:34;;;;;;;14.80;9.87;;;15.70;99.40;;;;;;5051097;28;20397;-73
2022/08/08 02:39:32;;;;;;;17.77;13.80;;;15.70;99.50;;;;;;5050925;28;20864;-73
2022/08/08 02:42:37;;;;;;;14.27;11.63;;;15.60;99.70;;;;;;5025417;28;20464;-73
2022/08/08 02:45:41;;;;;;;15.10;9.03;;;15.60;99.70;;;;;;5050823;28;20424;-73
2022/08/08 02:48:39;;;;;;;9.27;7.67;;;15.60;99.90;;;;;;5051220;28;20467;-73
2022/08/08 02:51:05;;;;;;;8.43;5.63;;;15.50;99.90;;;;;;5051769;28;20394;-73
2022/08/08 02:54:06;;;;;;;6.33;4.43;;;15.60;99.90;;;;;;5055203;28;20432;-73
2022/08/08 02:57:10;;;;;;;6.40;4.67;;;15.60;99.90;;;;;;5050798;28;20430;-73
2022/08/08 03:00:11;;;;;;;6.43;3.93;;;15.50;99.90;;;;;;5051058;28;20398;-73
2022/08/08 03:03:13;;;;;;;7.73;5.70;;;15.50;99.90;;;;;;5050843;28;20523;-72
2022/08/08 03:06:07;;;;;;;6.63;4.07;;;15.40;99.90;;;;;;5050458;28;20549;-72
2022/08/08 03:08:57;;;;;;;4.47;3.00;;;15.60;99.90;;;;;;5050701;28;20469;-72
2022/08/08 03:11:28;;;;;;;3.80;3.13;;;15.50;99.90;;;;;;5050759;28;20393;-73
2022/08/08 03:14:25;;;;;;;3.50;3.20;;;15.40;99.90;;;;;;5051277;28;20402;-73
2022/08/08 03:17:00;;;;;;;4.50;3.07;;;15.30;99.90;;;;;;5051293;28;20391;-73
2022/08/08 03:20:10;;;;;;;7.87;2.90;;;15.30;99.90;;;;;;5051695;28;20491;-72
2022/08/08 03:22:50;;;;;;;5.30;2.47;;;15.20;99.90;;;;;;5051483;28;20861;-71
2022/08/08 03:25:19;;;;;;;2.90;2.47;;;15.30;99.90;;;;;;5050799;28;20413;-72
2022/08/08 03:27:58;;;;;;;2.97;2.67;;;15.30;99.90;;;;;;5051290;28;20464;-73
2022/08/08 03:30:24;;;;;;;3.50;2.40;;;15.20;99.90;;;;;;5050493;28;20413;-72
2022/08/08 03:35:38;;;;;;;2.50;2.23;;;15.30;99.90;;;;;;5050182;28;20401;-72
2022/08/08 03:38:05;;;;;;;3.10;2.80;;;15.20;99.90;;;;;;5050882;28;20418;-73
2022/08/08 03:40:30;;;;;;;5.93;2.80;;;15.10;99.90;;;;;;5050625;28;20861;-73
2022/08/08 03:42:57;;;;;;;3.03;2.63;;;15.20;99.90;;;;;;5050631;28;20513;-73
2022/08/08 03:45:25;;;;;;;3.30;2.13;;;15.10;99.90;;;;;;5050242;28;20163;-72
2022/08/08 03:48:06;;;;;;;2.53;1.93;;;15.00;99.90;;;;;;5050600;28;20449;-72
2022/08/08 03:50:40;;;;;;;2.90;2.60;;;15.00;99.90;;;;;;5051695;28;20437;-73
2022/08/08 03:53:07;;;;;;;2.60;2.33;;;15.00;99.90;;;;;;5054454;28;20784;-73
2022/08/08 03:55:37;;;;;;;3.40;3.10;;;15.00;99.90;;;;;;5054088;28;20405;-73
2022/08/08 03:58:03;;;;;;;2.30;2.10;;;15.00;99.90;;;;;;5054422;28;20416;-73
2022/08/08 04:00:29;;;;;;;2.83;2.57;;;15.10;99.90;;;;;;5054058;28;20492;-73
2022/08/08 04:03:00;;;;;;;3.00;2.43;;;15.10;99.90;;;;;;5053995;28;20226;-73
2022/08/08 04:05:29;;;;;;;3.70;2.10;;;15.10;99.90;;;;;;5053684;28;20492;-73
2022/08/08 04:07:56;;;;;;;3.03;2.80;;;15.20;99.90;;;;;;5055844;28;20493;-73
2022/08/08 04:10:22;;;;;;;4.50;2.33;;;15.20;99.90;;;;;;5054065;28;20908;-73
2022/08/08 04:12:47;;;;;;;2.50;2.30;;;15.30;99.90;;;;;;5053788;28;20504;-72
2022/08/08 04:15:13;;;;;;;2.50;2.27;;;15.30;99.90;;;;;;5053239;28;20833;-73
2022/08/08 04:17:39;;;;;;;4.80;2.70;;;15.30;99.90;;;;;;5053814;28;20171;-73
2022/08/08 04:20:05;;;;;;;3.10;2.47;;;15.30;99.90;;;;;;5053467;28;20171;-72
2022/08/08 04:22:30;;;;;;;2.63;2.20;;;15.30;99.90;;;;;;5053532;28;20217;-72
2022/08/08 04:24:57;;;;;;;3.20;2.50;;;15.30;99.90;;;;;;5053312;28;20432;-73
2022/08/08 04:27:24;;;;;;;2.83;2.30;;;15.30;99.90;;;;;;5053531;28;20191;-73
2022/08/08 04:29:49;;;;;;;4.97;2.70;;;15.30;99.90;;;;;;5053357;28;20417;-73
2022/08/08 04:32:15;;;;;;;4.40;2.47;;;15.30;99.90;;;;;;5053304;28;20529;-73
2022/08/08 04:34:41;;;;;;;4.70;3.10;;;15.40;99.90;;;;;;5053082;28;20250;-72
2022/08/08 04:37:07;;;;;;;3.30;2.33;;;15.40;99.90;;;;;;5053382;28;20177;-72
2022/08/08 04:39:32;;;;;;;2.77;2.57;;;15.40;99.90;;;;;;5053553;28;20643;-72
2022/08/08 04:41:58;;;;;;;3.53;2.63;;;15.40;99.90;;;;;;5053397;28;20425;-72
2022/08/08 04:44:24;;;;;;;2.87;2.67;;;15.30;99.90;;;;;;5053051;28;20178;-73
2022/08/08 04:46:49;;;;;;;4.40;2.53;;;15.40;99.90;;;;;;5052620;28;20199;-72
2022/08/08 04:49:15;;;;;;;4.50;2.30;;;15.50;99.90;;;;;;5052842;28;20458;-72
2022/08/08 04:51:40;;;;;;;4.33;2.90;;;15.50;99.90;;;;;;5053025;28;20701;-73
2022/08/08 04:54:06;;;;;;;3.03;2.50;;;15.60;99.90;;;;;;5052999;28;20178;-73
2022/08/08 04:56:32;;;;;;;2.60;2.40;;;15.60;99.90;;;;;;5052638;28;20266;-73
2022/08/08 04:58:57;;;;;;;5.10;3.20;;;15.70;99.90;;;;;;5052736;28;20773;-73
2022/08/08 05:01:23;;;;;;;4.13;2.87;;;15.80;99.90;;;;;;5052706;28;20588;-73
2022/08/08 05:03:49;;;;;;;3.77;2.83;;;15.90;99.90;;;;;;5035300;28;20216;-73
2022/08/08 05:06:14;;;;;;;3.60;3.20;;;16.00;99.90;;;;;;5034823;28;20267;-76
2022/08/08 05:08:41;;;;;;;5.77;2.70;;;16.20;99.90;;;;;;5053333;28;20306;-74
2022/08/08 05:11:07;;;;;;;3.40;2.23;;;16.40;99.90;;;;;;5053353;28;20208;-73
2022/08/08 05:13:32;;;;;;;6.67;3.20;;;16.40;99.90;;;;;;5051458;28;20462;-72
2022/08/08 05:15:58;;;;;;;4.13;2.50;;;16.50;99.90;;;;;;5049320;28;20456;-72
2022/08/08 05:18:24;;;;;;;5.53;3.73;;;16.70;99.90;;;;;;5052627;28;20190;-74
2022/08/08 05:20:49;;;;;;;3.70;3.40;;;16.80;99.90;;;;;;5052553;28;20647;-73
2022/08/08 05:23:15;;;;;;;3.90;2.97;;;17.00;99.90;;;;;;5052343;28;20198;-73
2022/08/08 05:25:41;;;;;;;8.83;2.70;;;17.60;99.90;;;;;;5052295;28;20171;-75
2022/08/08 05:28:06;;;;;;;5.30;2.40;;;18.20;98.20;;;;;;5051701;28;20300;-73
2022/08/08 05:30:32;;;;;;;4.03;3.20;;;18.30;98.40;;;;;;5052350;28;20187;-72
2022/08/08 05:32:58;;;;;;;5.33;2.17;;;19.00;98.30;;;;;;5052877;28;20197;-72
2022/08/08 05:35:25;;;;;;;3.13;2.87;;;19.60;96.00;;;;;;5034886;28;20553;-72
2022/08/08 05:38:02;;;;;;;6.73;3.37;;;19.40;95.50;;;;;;5052263;28;20187;-72
2022/08/08 05:40:28;;;;;;;3.47;2.53;;;20.10;95.10;;;;;;5052425;28;20412;-73
2022/08/08 05:43:00;;;;;;;3.00;2.43;;;20.30;94.00;;;;;;5052508;28;20742;-72
2022/08/08 05:45:27;;;;;;;5.37;2.90;;;20.50;93.20;;;;;;5051805;28;20544;-73
2022/08/08 05:47:53;;;;;;;3.37;3.07;;;21.20;92.40;;;;;;5051966;28;20457;-72
2022/08/08 05:50:19;;;;;;;4.10;2.33;;;21.70;90.50;;;;;;5032404;28;20897;-72
2022/08/08 05:52:46;;;;;;;4.03;3.47;;;21.50;90.70;;;;;;5031950;28;20429;-73
2022/08/08 05:55:11;;;;;;;4.20;2.60;;;22.30;90.20;;;;;;5031492;28;20170;-73
2022/08/08 05:57:38;;;;;;;2.90;2.70;;;23.10;87.80;;;;;;5031941;28;20829;-73
2022/08/08 06:00:07;;;;;;;4.37;2.60;;;22.20;88.10;;;;;;5030509;28;20174;-72
2022/08/08 06:05:20;;;;;;;4.30;3.00;;;23.40;84.20;;;;;;5051636;28;20439;-72
2022/08/08 06:07:47;;;;;;;3.40;2.63;;;22.50;84.50;;;;;;5051534;28;20884;-72
2022/08/08 06:10:14;;;;;;;3.17;2.80;;;22.20;86.10;;;;;;5051435;28;20826;-72
2022/08/08 06:12:41;;;;;;;5.90;2.97;;;22.20;84.50;;;;;;5051087;28;20475;-72
2022/08/08 06:15:08;;;;;;;5.67;2.67;;;23.00;84.30;;;;;;5051067;28;20946;-72
2022/08/08 06:17:36;;;;;;;7.20;2.70;;;23.10;82.80;;;;;;5051435;28;20836;-73
2022/08/08 06:20:07;;;;;;;3.70;2.70;;;22.70;83.70;;;;;;5051325;28;20410;-73
2022/08/08 06:22:33;;;;;;;3.10;2.47;;;23.10;83.80;;;;;;5051570;28;20456;-74
2022/08/08 06:24:59;;;;;;;3.90;2.73;;;22.90;82.80;;;;;;5051036;28;20418;-72
2022/08/08 06:27:40;;;;;;;4.60;3.53;;;23.00;82.20;;;;;;5053821;28;20538;-73
2022/08/08 06:30:11;;;;;;;6.03;2.60;;;23.60;82.20;;;;;;5071321;28;20189;-74
2022/08/08 06:32:56;;;;;;;3.40;2.90;;;24.90;78.40;;;;;;5071057;28;20431;-73
2022/08/08 06:35:23;;;;;;;3.17;2.63;;;24.00;77.30;;;;;;5065825;28;20840;-73
2022/08/08 06:37:57;;;;;;;4.83;2.27;;;24.30;78.80;;;;;;5051354;28;20412;-73
2022/08/08 06:40:24;;;;;;;4.10;2.57;;;24.60;76.30;;;;;;5051125;28;20477;-73
2022/08/08 06:43:04;;;;;;;4.33;2.77;;;24.50;77.10;;;;;;5051260;28;20433;-73
2022/08/08 06:45:36;;;;;;;4.13;2.90;;;24.10;74.60;;;;;;5051434;28;20424;-73
2022/08/08 06:48:03;;;;;;;3.03;2.60;;;24.80;74.40;;;;;;5033484;28;20491;-73
2022/08/08 06:50:31;;;;;;;3.83;3.47;;;25.50;74.10;;;;;;5037941;28;20508;-74
2022/08/08 06:53:02;;;;;;;2.57;2.37;;;25.50;75.00;;;;;;5031976;28;20900;-74
2022/08/08 06:55:29;;;;;;;3.03;2.33;;;25.50;74.10;;;;;;5030354;28;20403;-74
2022/08/08 06:57:56;;;;;;;4.80;2.10;;;25.40;72.90;;;;;;5031191;28;20867;-73
2022/08/08 07:00:21;;;;;;;2.67;1.60;;;25.50;73.50;;;;;;5030967;28;20687;-73
2022/08/08 07:02:57;;;;;;;2.10;1.80;;;27.90;66.90;;;;;;5055772;28;20968;-73
2022/08/08 07:05:24;;;;;;;2.40;1.80;;;27.10;64.70;;;;;;5070409;28;20165;-73
2022/08/08 07:07:58;;;;;;;3.63;2.07;;;26.80;64.10;;;;;;5070448;28;20470;-73
2022/08/08 07:10:25;;;;;;;2.10;1.70;;;26.90;63.70;;;;;;5070934;28;20396;-73
2022/08/08 07:13:02;;;;;;;2.67;2.43;;;28.20;59.40;;;;;;5071003;28;20420;-73
2022/08/08 07:15:43;;;;;;;2.37;2.17;;;27.40;62.80;;;;;;5071053;28;20769;-74
2022/08/08 07:18:09;;;;;;;2.57;2.27;;;26.50;63.40;;;;;;5055216;28;20459;-72
2022/08/08 07:20:42;;;;;;;2.93;2.20;;;26.10;63.00;;;;;;5051165;28;20882;-73
2022/08/08 07:23:23;;;;;;;3.10;2.20;;;27.10;61.90;;;;;;5050906;28;20429;-73
2022/08/08 07:25:51;;;;;;;3.40;2.80;;;29.20;58.30;;;;;;5052359;28;20413;-73
2022/08/08 07:28:21;;;;;;;2.90;2.40;;;30.30;56.50;;;;;;5057377;28;20453;-73
2022/08/08 07:30:47;;;;;;;3.97;2.77;;;29.80;56.30;;;;;;5075778;28;20475;-73
2022/08/08 07:33:14;;;;;;;2.47;2.00;;;28.40;57.60;;;;;;5077679;28;20412;-72
2022/08/08 07:35:40;;;;;;;2.53;2.20;;;28.00;58.60;;;;;;5067613;28;20409;-73
2022/08/08 07:38:08;;;;;;;5.10;2.33;;;29.00;57.40;;;;;;5054996;28;20433;-73
2022/08/08 07:40:34;;;;;;;2.00;1.80;;;28.00;59.80;;;;;;5055197;28;20412;-73
2022/08/08 07:43:02;;;;;;;2.33;2.13;;;29.30;56.60;;;;;;5054976;28;20826;-73
2022/08/08 07:45:28;;;;;;;3.90;2.00;;;28.20;55.90;;;;;;5056628;28;20407;-73
2022/08/08 07:47:57;;;;;;;3.00;2.10;;;28.10;57.50;;;;;;5056161;28;20870;-73
2022/08/08 07:50:23;;;;;;;4.17;1.90;;;27.60;57.00;;;;;;5054502;28;20488;-73
2022/08/08 07:53:03;;;;;;;2.27;2.07;;;27.30;57.80;;;;;;5054257;28;20827;-74
2022/08/08 07:55:30;;;;;;;3.00;2.47;;;27.20;57.90;;;;;;5054150;28;20484;-73
2022/08/08 07:58:19;;;;;;;2.63;2.00;;;28.50;56.40;;;;;;5054041;28;20432;-73
2022/08/08 08:00:50;;;;;;;1.90;1.73;;;28.80;54.80;;;;;;5052548;28;20408;-73
2022/08/08 08:03:22;;;;;;;1.80;1.57;;;28.50;54.60;;;;;;5053704;28;20476;-73
2022/08/08 08:05:50;;;;;;;4.07;2.07;;;28.10;55.40;;;;;;5053482;28;20530;-73
2022/08/08 08:08:21;;;;;;;2.60;2.27;;;28.70;54.60;;;;;;5053826;28;20942;-74
2022/08/08 08:10:55;;;;;;;2.60;1.83;;;28.50;54.70;;;;;;5053727;28;20444;-73
2022/08/08 08:13:33;;;;;;;3.00;1.60;;;29.00;54.60;;;;;;5053918;28;20417;-74
2022/08/08 08:16:12;;;;;;;2.70;1.70;;;30.00;52.80;;;;;;5053814;28;20420;-72
2022/08/08 08:19:11;;;;;;;3.70;2.20;;;30.60;51.20;;;;;;5053604;28;20415;-72
2022/08/08 08:21:39;;;;;;;2.00;1.90;;;30.40;51.60;;;;;;5052605;28;20425;-74
2022/08/08 08:24:06;;;;;;;1.80;1.70;;;29.50;52.90;;;;;;5053612;28;20413;-73
2022/08/08 08:26:32;;;;;;;2.67;1.70;;;28.90;53.70;;;;;;5053324;28;20777;-73
2022/08/08 08:28:57;;;;;;;2.30;2.10;;;29.20;54.60;;;;;;5061656;28;20817;-72
2022/08/08 08:31:24;;;;;;;1.83;1.73;;;30.00;52.30;;;;;;5073571;28;20412;-73
2022/08/08 08:33:49;;;;;;;2.10;1.83;;;29.80;52.10;;;;;;5056902;28;20287;-73
2022/08/08 08:36:17;;;;;;;1.80;1.50;;;30.00;51.70;;;;;;5052640;28;20440;-72
2022/08/08 08:38:42;;;;;;;2.13;1.93;;;29.10;52.50;;;;;;5053470;28;20212;-73
2022/08/08 08:41:11;;;;;;;1.67;1.47;;;29.90;51.60;;;;;;5035579;28;20489;-73
2022/08/08 08:43:38;;;;;;;2.17;1.97;;;30.00;50.40;;;;;;5035371;28;20195;-73
2022/08/08 08:46:09;;;;;;;4.50;1.57;;;30.00;51.40;;;;;;5052809;28;20406;-73
2022/08/08 08:48:36;;;;;;;2.60;1.73;;;29.20;51.90;;;;;;5053086;28;20548;-72
2022/08/08 08:51:03;;;;;;;2.00;1.60;;;28.40;52.50;;;;;;5053173;28;20401;-73
2022/08/08 08:53:34;;;;;;;1.77;1.40;;;29.40;50.80;;;;;;5052858;28;20567;-73
2022/08/08 08:56:01;;;;;;;2.40;1.90;;;30.40;49.10;;;;;;5052802;28;20405;-73
2022/08/08 08:58:34;;;;;;;1.87;1.30;;;30.10;48.20;;;;;;5052693;28;20413;-73
2022/08/08 09:01:02;;;;;;;1.20;1.10;;;30.10;48.70;;;;;;5033205;28;20449;-72
2022/08/08 09:03:29;;;;;;;1.57;1.47;;;30.60;47.70;;;;;;5044828;28;20487;-74
2022/08/08 09:05:56;;;;;;;4.10;1.40;;;30.20;47.90;;;;;;5052503;28;20413;-74
2022/08/08 09:08:23;;;;;;;1.40;1.30;;;29.20;48.00;;;;;;5052358;28;20487;-73
2022/08/08 09:10:50;;;;;;;3.47;1.10;;;29.20;48.50;;;;;;5052157;28;20920;-73
2022/08/08 09:13:16;;;;;;;1.53;1.43;;;29.20;48.50;;;;;;5052566;28;20464;-73
2022/08/08 09:15:43;;;;;;;1.63;1.53;;;29.20;50.20;;;;;;5052334;28;20412;-73
2022/08/08 09:18:09;;;;;;;1.60;1.47;;;28.30;50.60;;;;;;5052082;28;20517;-72
2022/08/08 09:20:38;;;;;;;1.50;1.40;;;27.80;51.30;;;;;;5052275;28;20471;-73
2022/08/08 09:23:04;;;;;;;3.70;1.80;;;27.90;52.10;;;;;;5034324;28;20528;-72
2022/08/08 09:25:33;;;;;;;1.97;1.73;;;29.10;51.90;;;;;;5052231;28;20750;-73
2022/08/08 09:28:00;;;;;;;2.50;1.40;;;29.10;50.00;;;;;;5052584;28;20457;-73
2022/08/08 09:30:28;;;;;;;2.13;1.27;;;28.10;51.30;;;;;;5072394;28;20840;-73
2022/08/08 09:32:56;;;;;;;1.90;1.70;;;30.50;49.90;;;;;;5072159;28;20550;-72
2022/08/08 09:35:27;;;;;;;2.50;1.87;;;30.10;49.90;;;;;;5066369;28;20417;-73
2022/08/08 09:38:00;;;;;;;5.00;1.50;;;29.00;50.10;;;;;;5051791;28;20445;-73
2022/08/08 09:40:28;;;;;;;2.20;1.70;;;28.80;50.50;;;;;;5034071;28;20424;-73
2022/08/08 09:43:08;;;;;;;2.90;1.90;;;28.50;50.40;;;;;;5052199;28;20761;-74
2022/08/08 09:45:39;;;;;;;1.30;1.20;;;29.10;49.80;;;;;;5051637;28;20401;-73
2022/08/08 09:48:05;;;;;;;2.80;1.50;;;29.30;49.80;;;;;;5050552;28;20401;-72
2022/08/08 09:50:31;;;;;;;3.17;1.60;;;29.70;50.00;;;;;;5051600;28;20415;-73
2022/08/08 09:52:57;;;;;;;2.00;1.80;;;29.90;49.50;;;;;;5051708;28;20273;-73
2022/08/08 09:55:30;;;;;;;1.40;1.30;;;30.10;49.10;;;;;;5051580;28;20200;-72
2022/08/08 09:58:07;;;;;;;4.00;2.20;;;30.40;48.50;;;;;;5051608;28;20437;-73
2022/08/08 10:00:36;;;;;;;1.63;1.53;;;29.80;49.20;;;;;;5051363;28;20401;-72
2022/08/08 10:03:06;;;;;;;1.50;1.33;;;28.80;49.40;;;;;;5051325;28;20449;-73
2022/08/08 10:05:36;;;;;;;1.53;1.43;;;28.60;50.10;;;;;;5051035;28;20491;-72
2022/08/08 10:08:03;;;;;;;3.27;1.60;;;28.80;50.10;;;;;;5050902;28;20417;-72
2022/08/08 10:10:43;;;;;;;1.83;1.60;;;28.70;50.30;;;;;;5051483;28;20413;-72
2022/08/08 10:13:35;;;;;;;2.70;1.63;;;28.80;50.10;;;;;;5051222;28;20942;-72
2022/08/08 10:16:01;;;;;;;1.80;1.60;;;27.70;51.40;;;;;;5047842;28;20937;-72
2022/08/08 10:18:35;;;;;;;6.03;2.17;;;27.60;52.30;;;;;;5050651;28;20453;-72
2022/08/08 10:21:07;;;;;;;4.70;3.20;;;27.50;51.80;;;;;;5051167;28;20166;-72
2022/08/08 10:23:50;;;;;;;2.20;2.00;;;28.00;51.90;;;;;;5051010;28;20558;-73
2022/08/08 10:26:23;;;;;;;4.23;3.83;;;27.10;52.50;;;;;;5050814;28;20431;-72
2022/08/08 10:29:04;;;;;;;3.70;3.33;;;27.30;52.50;;;;;;5058166;28;20846;-73
2022/08/08 10:34:21;;;;;;;2.00;1.80;;;27.80;51.70;;;;;;5070836;28;20423;-72
2022/08/08 10:36:48;;;;;;;2.50;2.30;;;27.70;51.30;;;;;;5035945;28;20417;-72
2022/08/08 10:39:19;;;;;;;1.90;1.60;;;27.10;52.30;;;;;;5050733;28;20465;-73
2022/08/08 10:41:57;;;;;;;2.30;1.90;;;27.20;51.70;;;;;;5050701;28;20977;-73
2022/08/08 10:44:39;;;;;;;1.60;1.50;;;27.30;51.50;;;;;;5050629;28;20448;-73
2022/08/08 10:47:10;;;;;;;5.47;2.10;;;26.70;52.00;;;;;;5050701;28;20716;-72
2022/08/08 10:49:36;;;;;;;3.20;1.83;;;26.90;52.10;;;;;;5050264;28;20435;-72
2022/08/08 10:52:02;;;;;;;1.67;1.57;;;26.90;51.50;;;;;;5050714;28;20438;-72
2022/08/08 10:54:27;;;;;;;4.60;2.33;;;26.90;51.60;;;;;;5050300;28;20423;-72
2022/08/08 10:56:58;;;;;;;2.13;1.93;;;27.40;51.60;;;;;;5050445;28;20223;-73
2022/08/08 10:59:24;;;;;;;2.40;1.80;;;27.30;51.80;;;;;;5032191;28;20289;-73
2022/08/08 11:01:50;;;;;;;1.70;1.60;;;27.30;51.20;;;;;;5050064;28;20435;-73
2022/08/08 11:04:15;;;;;;;2.43;1.80;;;27.40;50.60;;;;;;5081458;22;20869;-65
2022/08/08 11:06:41;;;;;;;2.60;2.33;;;27.00;51.80;;;;;;5071391;28;20165;-66
2022/08/08 11:09:09;;;;;;;1.60;1.50;;;27.10;51.70;;;;;;5071752;28;20219;-66
2022/08/08 11:11:44;;;;;;;2.17;1.90;;;27.00;50.80;;;;;;5071664;28;20169;-66
2022/08/08 11:14:13;;;;;;;2.30;2.03;;;26.80;51.10;;;;;;5063098;28;20459;-66
2022/08/08 11:16:43;;;;;;;2.43;1.57;;;26.90;51.40;;;;;;5071367;28;20400;-66
2022/08/08 11:19:10;;;;;;;2.10;1.53;;;26.80;51.00;;;;;;5071459;28;20453;-66
2022/08/08 11:21:44;;;;;;;2.10;1.87;;;26.80;51.50;;;;;;5071316;28;20397;-66
2022/08/08 11:24:11;;;;;;;2.23;1.60;;;26.70;51.40;;;;;;5071464;28;20427;-66
2022/08/08 11:26:40;;;;;;;1.80;1.70;;;26.70;51.30;;;;;;5071292;28;20393;-66
2022/08/08 11:29:06;;;;;;;2.30;2.10;;;26.50;52.00;;;;;;5073244;28;20411;-66
2022/08/08 11:31:38;;;;;;;3.93;1.70;;;27.10;51.50;;;;;;5071431;28;20450;-66
2022/08/08 11:34:04;;;;;;;1.93;1.67;;;27.30;50.70;;;;;;5071395;28;20839;-66
2022/08/08 11:36:32;;;;;;;2.27;1.83;;;27.40;51.20;;;;;;5070978;28;20501;-66
2022/08/08 11:38:58;;;;;;;2.33;1.77;;;27.40;50.60;;;;;;5071184;28;20455;-66
2022/08/08 11:41:25;;;;;;;5.00;4.50;;;27.60;50.60;;;;;;5071150;28;20411;-66
2022/08/08 11:43:53;;;;;;;1.83;1.60;;;27.90;50.40;;;;;;5071201;28;20442;-66
2022/08/08 11:46:22;;;;;;;1.67;1.30;;;28.20;49.20;;;;;;5070914;28;20981;-66
2022/08/08 11:48:48;;;;;;;1.67;1.57;;;28.10;49.40;;;;;;5071184;28;20878;-66
2022/08/08 11:51:17;;;;;;;3.10;1.43;;;27.50;50.10;;;;;;5071254;28;20438;-67
2022/08/08 11:53:43;;;;;;;5.80;1.70;;;27.20;50.70;;;;;;5071322;28;20428;-66
2022/08/08 11:56:18;;;;;;;2.10;1.90;;;27.00;51.30;;;;;;5070789;28;20827;-66
2022/08/08 11:58:43;;;;;;;2.10;1.70;;;26.80;52.00;;;;;;5071121;28;20200;-66
2022/08/08 12:01:09;;;;;;;1.80;1.70;;;26.50;51.90;;;;;;5071078;28;20411;-65
2022/08/08 12:03:35;;;;;;;2.20;1.90;;;26.20;52.80;;;;;;5070710;28;20198;-66
2022/08/08 12:06:14;;;;;;;2.50;1.40;;;26.40;52.70;;;;;;5070665;28;20178;-65
2022/08/08 12:08:40;;;;;;;1.80;1.40;;;26.50;52.60;;;;;;5071328;28;20425;-65
2022/08/08 12:11:11;;;;;;;1.77;1.67;;;26.40;52.70;;;;;;5071942;28;20430;-66
2022/08/08 12:13:37;;;;;;;2.20;1.30;;;26.30;52.70;;;;;;5074561;28;20431;-65
2022/08/08 12:16:11;;;;;;;2.17;1.97;;;26.20;52.70;;;;;;5074453;28;20436;-65
2022/08/08 12:18:48;;;;;;;2.07;1.80;;;26.00;53.10;;;;;;5074464;28;20993;-65
2022/08/08 12:21:33;;;;;;;1.77;1.67;;;25.80;53.00;;;;;;5074605;28;20898;-65
2022/08/08 12:24:04;;;;;;;2.40;1.97;;;25.70;53.50;;;;;;5074472;28;20865;-65
2022/08/08 12:26:39;;;;;;;2.10;1.90;;;25.70;53.60;;;;;;5074229;28;20926;-65
2022/08/08 12:29:24;;;;;;;2.23;1.70;;;25.70;53.90;;;;;;5074471;28;20501;-65
2022/08/08 12:32:02;;;;;;;2.80;1.83;;;26.00;53.50;;;;;;5074413;28;20407;-65
2022/08/08 12:34:44;;;;;;;2.30;2.10;;;25.90;53.50;;;;;;5074080;28;20423;-65
2022/08/08 12:37:28;;;;;;;2.47;1.80;;;26.00;53.30;;;;;;5074239;28;20430;-65
2022/08/08 12:39:54;;;;;;;2.00;1.77;;;25.90;53.10;;;;;;5074412;28;20418;-65
2022/08/08 12:42:20;;;;;;;2.10;1.90;;;25.80;53.30;;;;;;5074202;28;20908;-65
2022/08/08 12:44:46;;;;;;;2.73;1.90;;;25.80;53.10;;;;;;5073943;28;20395;-65
2022/08/08 12:47:15;;;;;;;3.10;1.83;;;25.90;53.00;;;;;;5074411;28;20402;-65
2022/08/08 12:49:44;;;;;;;2.23;1.83;;;26.00;52.70;;;;;;5073965;28;20408;-65
2022/08/08 12:52:20;;;;;;;1.87;1.60;;;26.10;53.00;;;;;;5073797;28;20403;-65
2022/08/08 12:54:45;;;;;;;2.40;1.90;;;26.50;53.00;;;;;;5073778;28;20504;-65
2022/08/08 12:57:15;;;;;;;1.60;1.50;;;27.00;52.90;;;;;;5073892;28;20992;-65
2022/08/08 12:59:50;;;;;;;2.77;2.10;;;27.10;52.20;;;;;;5073881;28;20201;-65
2022/08/08 13:02:35;;;;;;;4.67;2.17;;;27.50;51.80;;;;;;5073823;28;20443;-66
2022/08/08 13:05:03;;;;;;;2.10;1.70;;;27.70;51.60;;;;;;5073387;28;20407;-65
2022/08/08 13:07:34;;;;;;;2.30;2.00;;;27.90;51.00;;;;;;5083894;28;20414;-65
2022/08/08 13:10:02;;;;;;;2.63;2.37;;;27.80;51.40;;;;;;5073395;28;20492;-65
2022/08/08 13:12:31;;;;;;;3.17;2.20;;;27.70;51.10;;;;;;5073478;28;20620;-65
2022/08/08 13:15:01;;;;;;;4.40;3.60;;;27.70;51.10;;;;;;5073197;28;20400;-65
2022/08/08 13:17:29;;;;;;;2.27;1.60;;;28.00;50.90;;;;;;5073743;28;20411;-65
2022/08/08 13:19:55;;;;;;;5.00;1.30;;;28.10;50.80;;;;;;5087840;28;20429;-65
2022/08/08 13:22:21;;;;;;;1.40;1.30;;;28.30;49.30;;;;;;5087099;28;20421;-65
2022/08/08 13:24:47;;;;;;;2.43;1.73;;;28.20;49.20;;;;;;5073043;28;20435;-65
2022/08/08 13:27:16;;;;;;;2.80;1.80;;;28.10;49.70;;;;;;5073467;28;20436;-65